createdAt,value
2022-10-11T00:06:21.036Z,100
2022-10-11T00:21:37.999Z,100
2022-10-11T00:36:53.975Z,100
2022-10-11T00:52:10.917Z,100
2022-10-11T01:07:26.911Z,100
2022-10-11T01:22:42.886Z,100
2022-10-11T01:37:59.881Z,100
2022-10-11T01:53:17.805Z,100
2022-10-11T02:08:34.825Z,100
2022-10-11T02:23:50.756Z,100
2022-10-11T02:39:06.779Z,100
2022-10-11T02:54:23.719Z,100
2022-10-11T03:09:39.707Z,100
2022-10-11T03:24:59.653Z,100
2022-10-11T03:40:12.663Z,100
2022-10-11T03:55:30.689Z,100
2022-10-11T04:10:47.648Z,100
2022-10-11T04:26:03.967Z,100
2022-10-11T04:41:19.547Z,100
2022-10-11T04:56:36.528Z,100
2022-10-11T05:11:52.511Z,100
2022-10-11T05:27:09.455Z,100
2022-10-11T05:42:26.471Z,100
2022-10-11T05:57:44.446Z,100
2022-10-11T06:13:00.398Z,100
2022-10-11T06:28:16.400Z,100
2022-10-11T06:43:32.345Z,100
2022-10-11T06:58:49.317Z,100
2022-10-11T07:14:05.293Z,100
2022-10-11T07:29:22.269Z,100
2022-10-11T07:44:39.201Z,100
2022-10-11T07:59:56.224Z,100
2022-10-11T08:15:12.144Z,100
2022-10-11T08:30:28.153Z,98.5
2022-10-11T08:45:44.095Z,92
2022-10-11T09:01:01.197Z,86
2022-10-11T09:16:17.030Z,82.5
2022-10-11T09:31:33.994Z,80.5
2022-10-11T09:46:50.985Z,78
2022-10-11T10:02:08.032Z,76.5
2022-10-11T10:17:23.910Z,74
2022-10-11T10:32:40.232Z,73.5
2022-10-11T10:47:55.847Z,71
2022-10-11T11:03:12.804Z,68
2022-10-11T11:03:57.684Z,68
2022-10-11T11:18:30.782Z,66
2022-10-11T11:33:48.898Z,65
2022-10-11T11:49:05.592Z,61
2022-10-11T12:04:21.675Z,60
2022-10-11T12:19:37.681Z,58
2022-10-11T12:34:54.630Z,57
2022-10-11T12:50:11.623Z,55
2022-10-11T13:05:28.548Z,54
2022-10-11T13:20:44.554Z,50
2022-10-11T13:36:00.541Z,52
2022-10-11T13:51:16.492Z,52.5
2022-10-11T14:06:33.452Z,52
2022-10-11T14:21:50.418Z,53
2022-10-11T14:37:07.401Z,52
2022-10-11T14:52:24.346Z,57
2022-10-11T15:07:41.348Z,56
2022-10-11T15:22:57.372Z,55
2022-10-11T15:38:13.257Z,57.5
2022-10-11T15:53:29.224Z,63
2022-10-11T16:08:46.203Z,66
2022-10-11T16:24:03.134Z,68.5
2022-10-11T16:39:20.138Z,70
2022-10-11T16:54:36.135Z,72.5
2022-10-11T17:09:53.090Z,75
2022-10-11T17:25:09.015Z,77.5
2022-10-11T17:40:25.015Z,82
2022-10-11T17:55:37.953Z,90
2022-10-11T18:10:53.959Z,93.5
2022-10-11T18:26:09.899Z,100
2022-10-11T18:41:25.905Z,100
2022-10-11T18:56:42.820Z,100
2022-10-11T19:11:59.832Z,100
2022-10-11T19:27:16.770Z,100
2022-10-11T19:42:33.135Z,100
2022-10-11T19:57:49.725Z,100
2022-10-11T20:13:05.722Z,100
2022-10-11T20:28:21.765Z,100
2022-10-11T20:43:38.660Z,100
2022-10-11T20:58:56.649Z,100
2022-10-11T21:14:13.584Z,100
2022-10-11T21:29:29.583Z,100
2022-10-11T21:44:45.534Z,100
2022-10-11T22:00:02.540Z,100
2022-10-11T22:15:18.471Z,100
2022-10-11T22:30:34.477Z,100
2022-10-11T22:45:51.502Z,100
2022-10-11T23:01:09.379Z,100
2022-10-11T23:16:26.343Z,100
2022-10-11T23:31:42.308Z,100
2022-10-11T23:46:58.299Z,100
